createdAt,value
2023-01-23T00:01:25.403Z,36.20
2023-01-23T00:03:54.376Z,41.23
2023-01-23T00:06:21.841Z,34.40
2023-01-23T00:08:48.656Z,36.53
2023-01-23T00:11:17.915Z,36.37
2023-01-23T00:13:44.720Z,35.30
2023-01-23T00:16:17.044Z,40.13
2023-01-23T00:18:44.355Z,30.97
2023-01-23T00:21:13.157Z,36.80
2023-01-23T00:23:44.991Z,29.83
2023-01-23T00:26:15.867Z,30.63
2023-01-23T00:28:47.049Z,27.40
2023-01-23T00:31:17.309Z,32.93
2023-01-23T00:33:44.831Z,32.03
2023-01-23T00:36:13.769Z,32.87
2023-01-23T00:38:40.967Z,32.47
2023-01-23T00:41:08.375Z,29.47
2023-01-23T00:43:35.104Z,27.67
2023-01-23T00:46:01.888Z,30.40
2023-01-23T00:48:28.678Z,30.20
2023-01-23T00:50:55.354Z,31.30
2023-01-23T00:53:22.815Z,32.63
2023-01-23T00:55:49.478Z,45.37
2023-01-23T00:58:16.126Z,33.87
2023-01-23T01:00:42.793Z,31.77
2023-01-23T01:03:09.688Z,36.43
2023-01-23T01:05:36.518Z,31.43
2023-01-23T01:08:04.037Z,28.33
2023-01-23T01:10:32.946Z,35.33
2023-01-23T01:13:01.984Z,30.10
2023-01-23T01:15:29.127Z,37.13
2023-01-23T01:17:56.267Z,26.80
2023-01-23T01:20:23.946Z,35.27
2023-01-23T01:22:50.747Z,37.00
2023-01-23T01:25:17.761Z,33.43
2023-01-23T01:27:44.785Z,28.97
2023-01-23T01:30:12.511Z,27.13
2023-01-23T01:32:40.998Z,30.37
2023-01-23T01:35:08.576Z,30.20
2023-01-23T01:37:36.939Z,25.80
2023-01-23T01:40:05.974Z,32.90
2023-01-23T01:42:39.818Z,31.37
2023-01-23T01:45:07.299Z,30.40
2023-01-23T01:47:34.935Z,26.50
2023-01-23T01:50:05.501Z,28.97
2023-01-23T01:52:32.284Z,28.00
2023-01-23T01:55:03.085Z,29.90
2023-01-23T01:57:41.007Z,27.20
2023-01-23T02:00:10.650Z,28.27
2023-01-23T02:03:01.435Z,30.57
2023-01-23T02:05:37.996Z,31.37
2023-01-23T02:08:23.032Z,27.30
2023-01-23T02:10:50.820Z,27.53
2023-01-23T02:13:31.246Z,29.97
2023-01-23T02:16:05.242Z,24.63
2023-01-23T02:18:34.330Z,27.90
2023-01-23T02:21:06.351Z,28.67
2023-01-23T02:24:10.379Z,30.10
2023-01-23T02:26:41.443Z,29.30
2023-01-23T02:29:08.409Z,27.07
2023-01-23T02:31:35.384Z,36.73
2023-01-23T02:34:02.342Z,28.70
2023-01-23T02:36:31.938Z,28.40
2023-01-23T02:39:11.026Z,28.13
2023-01-23T02:41:44.465Z,29.30
2023-01-23T02:44:21.243Z,26.83
2023-01-23T02:46:48.007Z,29.37
2023-01-23T02:49:15.598Z,26.83
2023-01-23T02:51:42.398Z,25.20
2023-01-23T02:54:09.262Z,29.67
2023-01-23T02:56:35.954Z,30.90
2023-01-23T02:59:21.096Z,28.97
2023-01-23T03:01:48.227Z,27.80
2023-01-23T03:04:14.908Z,26.80
2023-01-23T03:06:41.660Z,27.93
2023-01-23T03:09:11.726Z,29.37
2023-01-23T03:11:40.047Z,25.47
2023-01-23T03:14:09.639Z,26.57
2023-01-23T03:16:38.301Z,25.20
2023-01-23T03:19:09.146Z,26.50
2023-01-23T03:21:38.045Z,25.57
2023-01-23T03:24:06.128Z,28.30
2023-01-23T03:26:33.079Z,28.03
2023-01-23T03:29:18.261Z,25.80
2023-01-23T03:31:45.408Z,23.27
2023-01-23T03:34:12.171Z,21.70
2023-01-23T03:36:39.050Z,21.63
2023-01-23T03:39:26.018Z,26.23
2023-01-23T03:41:53.422Z,27.47
2023-01-23T03:44:21.180Z,28.63
2023-01-23T03:46:49.355Z,25.93
2023-01-23T03:49:16.510Z,29.07
2023-01-23T03:51:43.295Z,26.07
2023-01-23T03:54:10.589Z,28.20
2023-01-23T03:56:37.888Z,26.80
2023-01-23T03:59:04.631Z,26.77
2023-01-23T04:01:31.282Z,30.67
2023-01-23T04:03:58.079Z,30.53
2023-01-23T04:06:24.729Z,36.10
2023-01-23T04:08:51.628Z,33.97
2023-01-23T04:11:19.963Z,38.90
2023-01-23T04:14:06.614Z,35.60
2023-01-23T04:16:50.255Z,31.33
2023-01-23T04:19:21.025Z,30.73
2023-01-23T04:22:07.738Z,37.63
2023-01-23T04:24:54.310Z,40.50
2023-01-23T04:27:23.140Z,35.65
2023-01-23T04:30:10.479Z,42.07
2023-01-23T04:32:37.623Z,41.87
2023-01-23T04:35:04.899Z,39.67
2023-01-23T04:37:31.899Z,42.53
2023-01-23T04:39:58.543Z,36.23
2023-01-23T04:42:25.316Z,41.30
2023-01-23T04:44:51.983Z,36.20
2023-01-23T04:47:18.671Z,44.73
2023-01-23T04:49:45.395Z,37.50
2023-01-23T04:52:12.071Z,42.27
2023-01-23T04:54:38.732Z,33.73
2023-01-23T04:57:05.481Z,35.97
2023-01-23T04:59:32.118Z,42.27
2023-01-23T05:01:58.842Z,40.30
2023-01-23T05:04:25.523Z,34.03
2023-01-23T05:06:52.198Z,36.80
2023-01-23T05:09:18.941Z,36.83
2023-01-23T05:11:45.857Z,41.93
2023-01-23T05:14:12.551Z,35.13
2023-01-23T05:16:39.334Z,35.10
2023-01-23T05:19:06.131Z,32.43
2023-01-23T05:21:32.824Z,34.60
2023-01-23T05:23:59.510Z,35.63
2023-01-23T05:26:26.258Z,34.10
2023-01-23T05:28:53.031Z,38.20
2023-01-23T05:31:19.862Z,38.93
2023-01-23T05:33:46.622Z,38.07
2023-01-23T05:36:13.297Z,49.00
2023-01-23T05:38:40.459Z,43.40
2023-01-23T05:41:07.151Z,42.83
2023-01-23T05:43:33.843Z,47.27
2023-01-23T05:46:01.735Z,45.77
2023-01-23T05:48:29.173Z,41.10
2023-01-23T05:50:55.983Z,44.73
2023-01-23T05:53:22.618Z,46.67
2023-01-23T05:55:49.307Z,42.13
2023-01-23T05:58:16.192Z,46.67
2023-01-23T06:00:43.000Z,44.47
2023-01-23T06:03:09.958Z,42.83
2023-01-23T06:05:36.704Z,45.77
2023-01-23T06:08:03.601Z,44.37
2023-01-23T06:10:30.472Z,51.17
2023-01-23T06:12:57.274Z,47.10
2023-01-23T06:15:23.928Z,45.47
2023-01-23T06:17:50.640Z,47.00
2023-01-23T06:20:17.663Z,42.80
2023-01-23T06:22:44.504Z,50.20
2023-01-23T06:25:11.181Z,47.23
2023-01-23T06:27:38.024Z,43.60
2023-01-23T06:30:05.466Z,49.73
2023-01-23T06:32:32.130Z,47.50
2023-01-23T06:34:58.811Z,48.90
2023-01-23T06:37:25.506Z,51.77
2023-01-23T06:39:52.163Z,45.63
2023-01-23T06:42:18.837Z,47.97
2023-01-23T06:44:45.502Z,44.50
2023-01-23T06:47:12.163Z,49.23
2023-01-23T06:49:38.937Z,52.30
2023-01-23T06:52:05.682Z,41.63
2023-01-23T06:54:32.477Z,43.43
2023-01-23T06:56:59.149Z,42.57
2023-01-23T06:59:25.849Z,37.53
2023-01-23T07:01:52.498Z,37.20
2023-01-23T07:04:19.335Z,46.43
2023-01-23T07:06:46.167Z,36.77
2023-01-23T07:09:12.805Z,42.47
2023-01-23T07:11:40.034Z,38.77
2023-01-23T07:14:06.701Z,43.10
2023-01-23T07:16:35.153Z,48.37
2023-01-23T07:19:02.671Z,42.30
2023-01-23T07:21:29.307Z,41.20
2023-01-23T07:23:56.218Z,43.87
2023-01-23T07:26:22.859Z,42.60
2023-01-23T07:28:49.501Z,45.93
2023-01-23T07:31:16.641Z,45.63
2023-01-23T07:33:43.411Z,44.93
2023-01-23T07:36:10.581Z,48.80
2023-01-23T07:38:37.335Z,50.97
2023-01-23T07:41:04.080Z,51.83
2023-01-23T07:43:30.851Z,44.03
2023-01-23T07:46:01.423Z,51.53
2023-01-23T07:48:29.522Z,53.93
2023-01-23T07:50:56.267Z,54.63
2023-01-23T07:53:23.086Z,52.70
2023-01-23T07:55:49.971Z,58.40
2023-01-23T07:58:16.676Z,53.87
2023-01-23T08:00:43.481Z,48.00
2023-01-23T08:03:10.212Z,54.43
2023-01-23T08:05:37.038Z,48.30
2023-01-23T08:08:13.022Z,52.23
2023-01-23T08:10:41.433Z,54.70
2023-01-23T08:13:08.642Z,50.10
2023-01-23T08:15:37.729Z,49.87
2023-01-23T08:18:05.225Z,49.30
2023-01-23T08:20:31.912Z,41.20
2023-01-23T08:22:59.509Z,46.47
2023-01-23T08:25:26.365Z,47.13
2023-01-23T08:27:53.042Z,46.47
2023-01-23T08:30:20.056Z,48.57
2023-01-23T08:32:47.272Z,45.67
2023-01-23T08:35:14.435Z,42.43
2023-01-23T08:37:42.331Z,48.67
2023-01-23T08:40:09.993Z,46.40
2023-01-23T08:42:36.854Z,44.27
2023-01-23T08:45:04.828Z,49.97
2023-01-23T08:47:36.690Z,41.37
2023-01-23T08:50:05.264Z,41.17
2023-01-23T08:52:31.989Z,45.17
2023-01-23T08:54:58.702Z,40.97
2023-01-23T08:57:25.404Z,40.93
2023-01-23T08:59:52.028Z,41.60
2023-01-23T09:02:18.756Z,40.93
2023-01-23T09:04:46.449Z,38.97
2023-01-23T09:07:13.396Z,46.47
2023-01-23T09:09:40.138Z,43.97
2023-01-23T09:12:07.266Z,43.77
2023-01-23T09:14:33.979Z,52.83
2023-01-23T09:17:00.895Z,55.20
2023-01-23T09:19:31.363Z,51.43
2023-01-23T09:21:58.063Z,52.97
2023-01-23T09:24:24.765Z,55.90
2023-01-23T09:26:51.419Z,54.17
2023-01-23T09:29:18.071Z,51.87
2023-01-23T09:31:44.827Z,52.07
2023-01-23T09:34:11.630Z,49.07
2023-01-23T09:36:43.263Z,60.53
2023-01-23T09:39:10.903Z,52.40
2023-01-23T09:41:39.312Z,51.73
2023-01-23T09:44:14.669Z,53.60
2023-01-23T09:46:47.960Z,54.87
2023-01-23T09:49:25.865Z,58.60
2023-01-23T09:51:58.632Z,50.90
2023-01-23T09:54:31.335Z,51.13
2023-01-23T09:57:02.122Z,51.67
2023-01-23T09:59:47.073Z,46.30
2023-01-23T10:02:25.190Z,47.73
2023-01-23T10:04:53.993Z,47.80
2023-01-23T10:07:39.334Z,45.53
2023-01-23T10:10:26.084Z,52.90
2023-01-23T10:13:10.999Z,47.10
2023-01-23T10:16:02.578Z,47.10
2023-01-23T10:18:47.637Z,43.33
2023-01-23T10:21:22.647Z,46.70
2023-01-23T10:24:04.780Z,48.83
2023-01-23T10:26:36.601Z,49.03
2023-01-23T10:29:31.479Z,45.03
2023-01-23T10:32:01.730Z,48.37
2023-01-23T10:34:39.268Z,48.83
2023-01-23T10:37:38.388Z,51.30
2023-01-23T10:40:16.550Z,49.47
2023-01-23T10:42:43.651Z,47.30
2023-01-23T10:45:18.961Z,52.73
2023-01-23T10:47:54.633Z,55.60
2023-01-23T10:50:37.086Z,54.00
2023-01-23T10:53:09.188Z,50.97
2023-01-23T10:55:35.963Z,50.97
2023-01-23T10:58:03.262Z,52.97
2023-01-23T11:00:29.870Z,51.23
2023-01-23T11:02:56.544Z,50.87
2023-01-23T11:05:52.009Z,47.27
2023-01-23T11:09:00.410Z,48.23
2023-01-23T11:11:29.880Z,47.43
2023-01-23T11:14:22.685Z,50.77
2023-01-23T11:17:03.826Z,49.17
2023-01-23T11:19:33.369Z,48.63
2023-01-23T11:22:02.475Z,52.10
2023-01-23T11:24:40.161Z,48.60
2023-01-23T11:27:28.077Z,44.90
2023-01-23T11:30:31.521Z,42.00
2023-01-23T11:33:01.912Z,41.07
2023-01-23T11:35:45.622Z,39.00
2023-01-23T11:38:27.287Z,36.03
2023-01-23T11:40:54.327Z,37.80
2023-01-23T11:43:21.215Z,34.10
2023-01-23T11:45:59.982Z,35.53
2023-01-23T11:49:19.261Z,36.17
2023-01-23T11:52:04.431Z,40.33
2023-01-23T11:54:46.277Z,42.60
2023-01-23T11:57:30.247Z,43.07
2023-01-23T12:00:12.087Z,36.63
2023-01-23T12:02:49.962Z,45.07
2023-01-23T12:05:25.844Z,47.83
2023-01-23T12:08:06.136Z,49.57
2023-01-23T12:10:42.523Z,46.70
2023-01-23T12:13:15.228Z,44.47
2023-01-23T12:16:07.049Z,46.40
2023-01-23T12:19:11.249Z,48.63
2023-01-23T12:22:12.919Z,46.30
2023-01-23T12:24:57.818Z,50.63
2023-01-23T12:27:44.263Z,49.37
2023-01-23T12:30:17.233Z,52.27
2023-01-23T12:33:01.935Z,50.50
2023-01-23T12:36:02.290Z,46.13
2023-01-23T12:38:40.038Z,45.23
2023-01-23T12:41:30.059Z,49.17
2023-01-23T12:44:10.425Z,48.53
2023-01-23T12:46:42.253Z,44.93
2023-01-23T12:49:28.243Z,52.47
2023-01-23T12:52:03.111Z,48.87
2023-01-23T12:54:41.730Z,47.20
2023-01-23T12:57:11.031Z,47.80
2023-01-23T12:59:43.882Z,45.27
2023-01-23T13:02:37.541Z,49.00
2023-01-23T13:05:21.613Z,50.03
2023-01-23T13:08:10.183Z,41.87
2023-01-23T13:11:14.443Z,48.63
2023-01-23T13:13:42.972Z,46.30
2023-01-23T13:16:18.066Z,50.07
2023-01-23T13:19:17.479Z,44.60
2023-01-23T13:22:03.054Z,43.53
2023-01-23T13:24:58.580Z,41.43
2023-01-23T13:27:47.225Z,41.53
2023-01-23T13:30:41.235Z,43.63
2023-01-23T13:33:34.163Z,45.00
2023-01-23T13:36:30.398Z,42.27
2023-01-23T13:39:02.256Z,43.43
2023-01-23T13:41:31.203Z,41.87
2023-01-23T13:44:05.150Z,43.87
2023-01-23T13:46:37.960Z,38.53
2023-01-23T14:21:52.332Z,38.33
2023-01-23T14:24:24.980Z,41.43
2023-01-23T14:27:02.526Z,43.77
2023-01-23T14:29:31.353Z,43.27
2023-01-23T14:31:58.101Z,35.60
2023-01-23T14:34:26.513Z,44.07
2023-01-23T14:37:10.809Z,40.90
2023-01-23T14:39:39.027Z,36.47
2023-01-23T14:42:11.664Z,37.83
2023-01-23T14:44:47.162Z,39.40
2023-01-23T14:47:31.054Z,31.80
2023-01-23T14:50:01.931Z,36.07
2023-01-23T14:52:30.647Z,31.13
2023-01-23T14:55:01.193Z,32.90
2023-01-23T14:57:32.579Z,32.00
2023-01-23T14:59:59.335Z,31.60
2023-01-23T15:02:33.953Z,32.10
2023-01-23T15:05:19.191Z,27.47
2023-01-23T15:07:57.007Z,32.20
2023-01-23T15:10:23.940Z,31.00
2023-01-23T15:12:52.668Z,33.27
2023-01-23T15:15:22.691Z,31.43
2023-01-23T15:17:51.299Z,32.93
2023-01-23T15:20:28.528Z,32.93
2023-01-23T15:22:55.218Z,29.70
2023-01-23T15:25:33.661Z,33.50
2023-01-23T15:28:00.327Z,33.37
2023-01-23T15:30:36.094Z,34.30
2023-01-23T15:33:09.215Z,29.43
2023-01-23T15:35:38.125Z,32.20
2023-01-23T15:38:08.643Z,32.57
2023-01-23T15:40:38.254Z,31.47
2023-01-23T15:43:19.480Z,34.57
2023-01-23T15:45:46.572Z,33.23
2023-01-23T15:48:13.274Z,33.47
2023-01-23T15:50:40.116Z,34.13
2023-01-23T15:53:13.543Z,35.03
2023-01-23T15:55:40.988Z,34.10
2023-01-23T15:58:13.076Z,36.30
2023-01-23T16:00:40.507Z,34.83
2023-01-23T16:03:07.340Z,33.10
2023-01-23T16:05:36.251Z,37.03
2023-01-23T16:08:04.746Z,39.57
2023-01-23T16:10:36.515Z,34.20
2023-01-23T16:13:03.837Z,36.17
2023-01-23T16:15:33.611Z,37.70
2023-01-23T16:18:03.189Z,36.47
2023-01-23T16:20:44.990Z,33.70
2023-01-23T16:23:31.264Z,34.70
2023-01-23T16:26:02.848Z,34.33
2023-01-23T16:28:30.232Z,35.50
2023-01-23T16:30:56.870Z,36.37
2023-01-23T16:33:24.182Z,34.83
2023-01-23T16:35:51.617Z,45.27
2023-01-23T16:38:27.464Z,42.23
2023-01-23T16:40:56.723Z,34.47
2023-01-23T16:43:23.492Z,36.23
2023-01-23T16:45:53.696Z,43.33
2023-01-23T16:48:27.108Z,37.00
2023-01-23T16:51:00.206Z,39.07
2023-01-23T16:53:31.366Z,39.90
2023-01-23T16:56:00.485Z,41.20
2023-01-23T16:58:31.334Z,42.37
2023-01-23T17:01:03.895Z,43.40
2023-01-23T17:03:35.849Z,38.17
2023-01-23T17:06:02.946Z,36.27
2023-01-23T17:08:31.752Z,38.90
2023-01-23T17:11:02.204Z,40.77
2023-01-23T17:13:33.754Z,37.30
2023-01-23T17:16:07.330Z,39.03
2023-01-23T17:18:38.260Z,40.70
2023-01-23T17:21:05.916Z,38.13
2023-01-23T17:23:32.789Z,41.37
2023-01-23T17:26:01.302Z,39.70
2023-01-23T17:28:29.926Z,38.93
2023-01-23T17:31:00.677Z,40.33
2023-01-23T17:33:31.639Z,41.03
2023-01-23T17:36:00.529Z,38.33
2023-01-23T17:38:34.522Z,38.97
2023-01-23T17:41:01.948Z,41.13
2023-01-23T17:43:29.499Z,42.63
2023-01-23T17:45:56.596Z,40.90
2023-01-23T17:48:31.565Z,41.27
2023-01-23T17:50:59.376Z,51.27
2023-01-23T17:53:27.816Z,42.77
2023-01-23T17:55:54.818Z,41.47
2023-01-23T17:58:21.706Z,45.90
2023-01-23T18:00:51.045Z,43.47
2023-01-23T18:03:22.187Z,44.83
2023-01-23T18:05:49.214Z,44.37
2023-01-23T18:08:24.159Z,47.83
2023-01-23T18:10:56.631Z,47.17
2023-01-23T18:13:26.542Z,48.07
2023-01-23T18:16:05.995Z,49.47
2023-01-23T18:18:36.394Z,47.80
2023-01-23T18:21:05.405Z,46.70
2023-01-23T18:23:34.124Z,43.53
2023-01-23T18:26:12.104Z,43.20
2023-01-23T18:29:14.118Z,44.33
2023-01-23T18:32:08.774Z,52.20
2023-01-23T18:34:50.800Z,49.03
2023-01-23T18:37:23.468Z,53.50
2023-01-23T18:40:18.422Z,44.50
2023-01-23T18:43:04.697Z,44.37
2023-01-23T18:45:32.099Z,43.90
2023-01-23T18:47:59.440Z,49.43
2023-01-23T18:50:27.130Z,47.80
2023-01-23T18:53:16.477Z,53.93
2023-01-23T18:55:47.021Z,52.50
2023-01-23T18:58:25.940Z,49.40
2023-01-23T19:01:12.350Z,48.70
2023-01-23T19:03:43.336Z,43.50
2023-01-23T19:06:23.358Z,41.97
2023-01-23T19:08:52.092Z,44.87
2023-01-23T19:11:50.124Z,44.07
2023-01-23T19:14:32.167Z,45.43
2023-01-23T19:17:12.837Z,44.60
2023-01-23T19:20:00.910Z,47.93
2023-01-23T19:22:39.731Z,49.00
2023-01-23T19:25:17.368Z,47.57
2023-01-23T19:27:52.412Z,45.60
2023-01-23T19:30:23.854Z,44.43
2023-01-23T19:32:50.678Z,52.80
2023-01-23T19:35:18.303Z,54.23
2023-01-23T19:37:46.118Z,51.53
2023-01-23T19:40:15.239Z,55.23
2023-01-23T19:42:54.096Z,54.13
2023-01-23T19:45:25.692Z,49.93
2023-01-23T19:47:53.713Z,48.87
2023-01-23T19:50:21.999Z,52.93
2023-01-23T19:52:50.245Z,52.13
2023-01-23T19:55:25.956Z,46.13
2023-01-23T19:57:54.097Z,50.40
2023-01-23T20:00:21.232Z,52.17
2023-01-23T20:02:48.357Z,48.53
2023-01-23T20:05:15.510Z,56.97
2023-01-23T20:07:42.537Z,47.80
2023-01-23T20:10:10.675Z,53.33
2023-01-23T20:12:45.258Z,49.33
2023-01-23T20:15:14.801Z,51.23
2023-01-23T20:17:41.628Z,51.97
2023-01-23T20:20:11.382Z,48.93
2023-01-23T20:22:43.035Z,51.53
2023-01-23T20:25:12.729Z,45.80
2023-01-23T20:27:40.396Z,52.37
2023-01-23T20:30:11.770Z,50.07
2023-01-23T20:32:38.513Z,54.23
2023-01-23T20:35:05.691Z,52.97
2023-01-23T20:37:32.490Z,60.53
2023-01-23T20:39:59.271Z,50.43
2023-01-23T20:42:26.018Z,59.60
2023-01-23T20:44:52.777Z,60.93
2023-01-23T20:47:19.650Z,62.17
2023-01-23T20:49:46.431Z,53.43
2023-01-23T20:52:31.702Z,50.70
2023-01-23T20:54:58.467Z,51.63
2023-01-23T20:57:45.073Z,55.87
2023-01-23T21:00:12.368Z,50.87
2023-01-23T21:02:39.086Z,46.03
2023-01-23T21:05:05.930Z,53.43
2023-01-23T21:07:33.094Z,47.33
2023-01-23T21:09:59.991Z,50.07
2023-01-23T21:12:26.804Z,45.20
2023-01-23T21:14:53.725Z,46.67
2023-01-23T21:17:20.763Z,52.03
2023-01-23T21:19:47.984Z,50.40
2023-01-23T21:22:15.256Z,48.20
2023-01-23T21:24:42.194Z,51.30
2023-01-23T21:27:09.318Z,48.97
2023-01-23T21:29:37.906Z,48.33
2023-01-23T21:32:04.716Z,50.80
2023-01-23T21:34:32.224Z,43.57
2023-01-23T21:36:59.098Z,42.97
2023-01-23T21:39:25.779Z,45.60
2023-01-23T21:41:52.529Z,47.33
2023-01-23T21:44:19.451Z,47.90
2023-01-23T21:46:47.058Z,55.87
2023-01-23T21:49:13.819Z,49.20
2023-01-23T21:51:41.366Z,47.47
2023-01-23T21:54:09.140Z,47.17
2023-01-23T21:56:36.115Z,47.33
2023-01-23T21:59:03.246Z,44.23
2023-01-23T22:01:33.856Z,41.17
2023-01-23T22:04:24.326Z,46.03
2023-01-23T22:06:54.947Z,44.97
2023-01-23T22:09:24.766Z,45.90
2023-01-23T22:11:52.680Z,47.13
2023-01-23T22:14:20.072Z,47.50
2023-01-23T22:16:49.427Z,49.60
2023-01-23T22:19:20.687Z,48.57
2023-01-23T22:21:48.894Z,48.63
2023-01-23T22:24:15.762Z,47.10
2023-01-23T22:26:43.217Z,51.57
2023-01-23T22:29:12.074Z,50.80
2023-01-23T22:31:38.920Z,53.47
2023-01-23T22:34:05.767Z,49.90
2023-01-23T22:36:32.664Z,51.37
2023-01-23T22:38:59.428Z,56.33
2023-01-23T22:41:26.458Z,48.20
2023-01-23T22:43:55.030Z,47.83
2023-01-23T22:46:23.229Z,49.63
2023-01-23T22:48:50.436Z,47.67
2023-01-23T22:51:20.800Z,53.80
2023-01-23T22:53:48.201Z,53.13
2023-01-23T22:56:15.395Z,55.97
2023-01-23T22:58:46.269Z,54.70
2023-01-23T23:01:13.252Z,55.27
2023-01-23T23:03:40.251Z,54.07
2023-01-23T23:06:10.796Z,58.13
2023-01-23T23:08:37.981Z,53.77
2023-01-23T23:11:10.596Z,52.23
2023-01-23T23:13:39.076Z,54.57
2023-01-23T23:16:11.846Z,50.43
2023-01-23T23:18:39.440Z,54.30
2023-01-23T23:21:09.227Z,50.80
2023-01-23T23:23:36.151Z,54.10
2023-01-23T23:26:04.748Z,44.97
2023-01-23T23:28:31.841Z,47.47
2023-01-23T23:30:58.580Z,52.27
2023-01-23T23:33:25.305Z,47.30
2023-01-23T23:35:52.317Z,49.73
2023-01-23T23:38:19.314Z,48.87
2023-01-23T23:41:00.930Z,48.77
2023-01-23T23:43:28.408Z,46.10
2023-01-23T23:45:57.582Z,47.53
2023-01-23T23:48:25.295Z,46.03
2023-01-23T23:50:52.539Z,42.47
2023-01-23T23:53:19.863Z,41.73
2023-01-23T23:55:46.563Z,44.37
2023-01-23T23:58:15.175Z,44.27
